createdAt,value
2018-12-29T09:35:34.550Z,13.70
2018-12-29T09:38:02.994Z,13.60
2018-12-29T09:40:31.587Z,13.50
2018-12-29T09:43:00.037Z,13.40
2018-12-29T09:45:28.481Z,13.30
2018-12-29T09:47:57.978Z,13.20
2018-12-29T09:50:26.604Z,13.20
2018-12-29T09:52:54.982Z,13.20
2018-12-29T09:55:23.681Z,13.20
2018-12-29T09:57:52.185Z,13.20
2018-12-29T10:00:21.273Z,13.20
2018-12-29T10:02:50.611Z,13.30
2018-12-29T10:05:19.617Z,13.30
2018-12-29T10:07:48.720Z,13.30
2018-12-29T10:10:17.625Z,13.30
2018-12-29T10:12:46.082Z,13.20
2018-12-29T10:15:14.465Z,13.30
2018-12-29T10:17:43.800Z,13.30
2018-12-29T10:20:13.449Z,13.40
2018-12-29T10:22:42.152Z,13.40
2018-12-29T10:25:10.650Z,13.40
2018-12-29T10:27:39.055Z,13.40
2018-12-29T10:30:07.714Z,13.30
2018-12-29T10:32:36.314Z,13.40
2018-12-29T10:35:05.043Z,13.30
2018-12-29T10:37:33.521Z,13.40
2018-12-29T10:40:02.484Z,13.40
2018-12-29T10:42:31.396Z,13.20
2018-12-29T10:44:59.876Z,13.20
2018-12-29T10:47:34.440Z,13.10
2018-12-29T10:50:00.082Z,13.00
2018-12-29T10:52:28.689Z,13.00
2018-12-29T10:54:57.357Z,12.90
2018-12-29T10:57:25.728Z,12.80
2018-12-29T10:59:54.152Z,12.80
2018-12-29T11:02:22.525Z,12.80
2018-12-29T11:04:51.130Z,12.70
2018-12-29T11:07:19.653Z,12.80
2018-12-29T11:09:47.988Z,12.70
2018-12-29T11:12:16.525Z,12.80
2018-12-29T11:14:44.914Z,12.80
2018-12-29T11:17:13.500Z,12.80
2018-12-29T11:19:42.021Z,12.80
2018-12-29T11:22:11.113Z,12.80
2018-12-29T11:24:39.667Z,12.80
2018-12-29T11:27:11.872Z,12.80
2018-12-29T11:29:40.250Z,12.80
2018-12-29T11:32:08.638Z,12.80
2018-12-29T11:34:37.015Z,12.80
2018-12-29T11:37:05.730Z,12.70
2018-12-29T11:39:34.248Z,12.80
2018-12-29T11:42:02.565Z,12.70
2018-12-29T11:44:31.046Z,12.70
2018-12-29T11:46:59.381Z,12.70
2018-12-29T11:49:29.209Z,12.70
2018-12-29T11:51:57.654Z,12.70
2018-12-29T11:54:26.102Z,12.70
2018-12-29T11:56:54.607Z,12.80
2018-12-29T11:59:23.287Z,12.80
2018-12-29T12:01:52.726Z,12.80
2018-12-29T12:04:22.013Z,12.80
2018-12-29T12:06:50.617Z,12.80
2018-12-29T12:09:19.086Z,12.90
2018-12-29T12:11:47.578Z,12.80
2018-12-29T12:14:16.081Z,12.80
2018-12-29T12:16:44.405Z,12.80
2018-12-29T12:19:12.839Z,12.80
2018-12-29T12:21:42.823Z,12.80
2018-12-29T12:24:11.362Z,12.80
2018-12-29T12:26:39.918Z,12.90
2018-12-29T12:29:08.456Z,12.90
2018-12-29T12:31:38.899Z,12.90
2018-12-29T12:34:07.347Z,13.00
2018-12-29T12:36:36.246Z,13.00
2018-12-29T12:39:06.766Z,13.10
2018-12-29T12:41:35.613Z,13.20
2018-12-29T12:44:04.480Z,13.30
2018-12-29T12:46:33.109Z,13.30
2018-12-29T12:49:01.886Z,13.50
2018-12-29T12:51:30.395Z,13.50
2018-12-29T12:53:58.985Z,13.60
2018-12-29T12:56:29.531Z,13.60
2018-12-29T12:58:58.005Z,13.70
2018-12-29T13:01:27.639Z,13.80
2018-12-29T13:03:56.206Z,13.80
2018-12-29T13:06:24.815Z,13.90
2018-12-29T13:08:53.456Z,13.80
2018-12-29T13:11:21.907Z,13.80
2018-12-29T13:13:50.255Z,13.70
2018-12-29T13:16:18.919Z,13.70
2018-12-29T13:18:47.317Z,13.60
2018-12-29T13:21:15.928Z,13.60
2018-12-29T13:23:44.470Z,13.50
2018-12-29T13:26:13.161Z,13.50
2018-12-29T13:28:41.508Z,13.40
2018-12-29T13:31:10.016Z,13.40
2018-12-29T13:33:38.445Z,13.40
2018-12-29T13:36:06.945Z,13.30
2018-12-29T13:38:35.523Z,13.20
2018-12-29T13:41:03.881Z,13.10
2018-12-29T13:43:32.368Z,13.10
2018-12-29T13:46:01.823Z,13.10
2018-12-29T13:48:30.354Z,13.10
2018-12-29T13:50:58.799Z,13.10
2018-12-29T13:53:27.237Z,13.00
2018-12-29T13:55:55.690Z,13.00
2018-12-29T13:58:24.069Z,12.90
2018-12-29T14:00:52.449Z,12.90
2018-12-29T14:03:20.845Z,12.80
2018-12-29T14:05:49.213Z,12.90
2018-12-29T14:08:17.662Z,12.90
2018-12-29T14:10:46.078Z,13.00
2018-12-29T14:13:14.625Z,13.10
2018-12-29T14:15:43.153Z,13.20
2018-12-29T14:18:11.581Z,13.30
2018-12-29T14:20:40.150Z,13.40
2018-12-29T14:23:09.753Z,13.40
2018-12-29T14:25:38.764Z,13.50
2018-12-29T14:28:07.410Z,13.50
2018-12-29T14:30:35.806Z,13.60
2018-12-29T14:33:04.366Z,13.60
2018-12-29T14:35:32.809Z,13.60
2018-12-29T14:38:01.557Z,13.50
2018-12-29T14:40:30.085Z,13.50
2018-12-29T14:43:00.096Z,13.40
2018-12-29T14:45:28.537Z,13.30
2018-12-29T14:47:57.061Z,13.20
2018-12-29T14:50:26.156Z,13.00
2018-12-29T14:52:55.376Z,12.90
2018-12-29T14:55:23.963Z,12.80
2018-12-29T14:57:52.735Z,12.70
2018-12-29T15:00:21.509Z,12.50
2018-12-29T15:02:49.902Z,12.50
2018-12-29T15:05:18.440Z,12.40
2018-12-29T15:07:46.851Z,12.30
2018-12-29T15:10:15.778Z,12.20
2018-12-29T15:12:44.142Z,12.10
2018-12-29T15:15:13.162Z,12.00
2018-12-29T15:17:41.576Z,11.90
2018-12-29T15:20:10.695Z,11.90
2018-12-29T15:22:39.176Z,11.80
2018-12-29T15:25:07.652Z,11.80
2018-12-29T15:27:36.611Z,11.70
2018-12-29T15:30:05.597Z,11.60
2018-12-29T15:32:34.221Z,11.60
2018-12-29T15:35:03.250Z,11.50
2018-12-29T15:37:31.756Z,11.40
2018-12-29T15:40:00.346Z,11.40
2018-12-29T15:42:29.498Z,11.30
2018-12-29T15:44:58.152Z,11.20
2018-12-29T15:47:27.132Z,11.10
2018-12-29T15:49:56.105Z,11.00
2018-12-29T15:52:24.648Z,10.90
2018-12-29T15:54:53.088Z,10.90
2018-12-29T15:57:21.617Z,10.80
2018-12-29T15:59:50.579Z,10.70
2018-12-29T16:02:19.117Z,10.60
2018-12-29T16:04:48.101Z,10.50
2018-12-29T16:07:16.413Z,10.50
2018-12-29T16:09:44.961Z,10.30
2018-12-29T16:12:13.749Z,10.30
2018-12-29T16:14:42.249Z,10.20
2018-12-29T16:17:10.804Z,10.20
2018-12-29T16:19:39.497Z,10.10
2018-12-29T16:22:08.556Z,10.00
2018-12-29T16:24:37.138Z,10.00
2018-12-29T16:27:06.440Z,10.00
2018-12-29T16:29:34.981Z,10.00
2018-12-29T16:32:03.827Z,10.00
2018-12-29T16:34:32.353Z,9.90
2018-12-29T16:37:00.769Z,9.80
2018-12-29T16:39:29.361Z,9.80
2018-12-29T16:41:57.864Z,9.70
2018-12-29T16:44:26.365Z,9.70
2018-12-29T16:46:54.694Z,9.70
2018-12-29T16:49:23.205Z,9.70
2018-12-29T16:51:51.598Z,9.60
2018-12-29T16:54:20.669Z,9.60
2018-12-29T16:56:50.170Z,9.50
2018-12-29T16:59:18.537Z,9.50
2018-12-29T17:01:47.489Z,9.50
2018-12-29T17:04:15.829Z,9.40
2018-12-29T17:06:44.233Z,9.40
2018-12-29T17:09:12.634Z,9.30
2018-12-29T17:11:41.009Z,9.30
2018-12-29T17:14:09.330Z,9.20
2018-12-29T17:16:38.058Z,9.30
2018-12-29T17:19:06.365Z,9.30
2018-12-29T17:21:34.717Z,9.30
2018-12-29T17:24:03.499Z,9.40
2018-12-29T17:26:31.815Z,9.40
2018-12-29T17:29:00.217Z,9.30
2018-12-29T17:31:29.151Z,9.30
2018-12-29T17:33:57.723Z,9.30
2018-12-29T17:36:26.169Z,9.20
2018-12-29T17:38:54.488Z,9.30
2018-12-29T17:41:22.956Z,9.20
2018-12-29T17:43:51.661Z,9.20
2018-12-29T17:46:20.379Z,9.20
2018-12-29T17:48:48.833Z,9.20
2018-12-29T17:51:17.334Z,9.10
2018-12-29T17:53:48.220Z,9.10
2018-12-29T17:56:16.013Z,9.10
2018-12-29T17:58:44.427Z,9.10
2018-12-29T18:01:12.843Z,9.10
2018-12-29T18:03:41.142Z,9.10
2018-12-29T18:06:10.880Z,9.10
2018-12-29T18:08:39.427Z,9.10
2018-12-29T18:11:08.279Z,9.10
2018-12-29T18:13:36.601Z,9.00
2018-12-29T18:16:05.065Z,9.00
2018-12-29T18:18:33.396Z,9.00
2018-12-29T18:21:01.920Z,9.00
2018-12-29T18:23:31.101Z,9.00
2018-12-29T18:25:59.729Z,9.00
2018-12-29T18:28:29.343Z,9.00
2018-12-29T18:30:58.025Z,9.00
2018-12-29T18:33:26.529Z,9.10
2018-12-29T18:35:55.568Z,9.10
2018-12-29T18:38:23.877Z,9.10
2018-12-29T18:40:52.349Z,9.10
2018-12-29T18:43:20.664Z,9.10
2018-12-29T18:45:49.161Z,9.10
2018-12-29T18:48:18.314Z,9.20
2018-12-29T18:50:47.045Z,9.10
2018-12-29T18:53:15.474Z,9.20
2018-12-29T18:55:43.958Z,9.20
2018-12-29T18:58:12.474Z,9.10
2018-12-29T19:00:40.932Z,9.20
2018-12-29T19:03:09.241Z,9.10
2018-12-29T19:05:37.678Z,9.10
2018-12-29T19:08:06.090Z,9.10
2018-12-29T19:10:34.694Z,9.10
2018-12-29T19:13:03.588Z,9.10
2018-12-29T19:15:32.497Z,9.10
2018-12-29T19:18:01.596Z,9.00
2018-12-29T19:20:30.429Z,9.00
2018-12-29T19:22:58.965Z,9.00
2018-12-29T19:25:27.282Z,9.00
2018-12-29T19:27:56.969Z,9.00
2018-12-29T19:30:26.091Z,9.00
2018-12-29T19:32:55.045Z,9.00
2018-12-29T19:35:23.441Z,8.90
2018-12-29T19:37:51.817Z,8.90
2018-12-29T19:40:20.431Z,8.80
2018-12-29T19:42:49.253Z,8.80
2018-12-29T19:45:17.705Z,8.80
2018-12-29T19:47:46.613Z,8.80
2018-12-29T19:50:15.402Z,8.80
2018-12-29T19:52:43.806Z,8.90
2018-12-29T19:55:13.297Z,8.90
2018-12-29T19:57:41.754Z,8.90
2018-12-29T20:00:10.869Z,8.90
2018-12-29T20:02:40.302Z,8.80
2018-12-29T20:05:09.271Z,8.90
2018-12-29T20:07:38.993Z,8.90
2018-12-29T20:10:07.889Z,8.80
2018-12-29T20:12:36.312Z,8.80
2018-12-29T20:15:05.233Z,8.70
2018-12-29T20:17:35.073Z,8.60
2018-12-29T20:20:05.349Z,8.60
2018-12-29T20:22:33.858Z,8.60
2018-12-29T20:25:02.257Z,8.60
2018-12-29T20:27:30.733Z,8.60
2018-12-29T20:29:59.500Z,8.70
2018-12-29T20:32:29.166Z,8.70
2018-12-29T20:35:00.597Z,8.60
2018-12-29T20:37:30.191Z,8.60
2018-12-29T20:39:58.521Z,8.50
2018-12-29T20:42:27.407Z,8.50
2018-12-29T20:44:55.816Z,8.50
2018-12-29T20:47:24.213Z,8.40
2018-12-29T20:49:52.652Z,8.40
2018-12-29T20:52:21.050Z,8.40
2018-12-29T20:54:49.519Z,8.30
2018-12-29T20:57:17.914Z,8.20
2018-12-29T20:59:46.489Z,8.10
2018-12-29T21:02:14.990Z,8.10
2018-12-29T21:04:43.293Z,8.10
2018-12-29T21:07:11.761Z,8.10
2018-12-29T21:09:41.246Z,8.10
2018-12-29T21:12:11.333Z,8.10
2018-12-29T21:14:39.697Z,8.10
2018-12-29T21:17:08.181Z,8.10
2018-12-29T21:19:36.559Z,8.10
2018-12-29T21:22:05.356Z,8.10
2018-12-29T21:24:33.796Z,8.20
2018-12-29T21:27:02.266Z,8.20
2018-12-29T21:29:45.056Z,8.30
2018-12-29T21:32:14.682Z,8.30
2018-12-29T21:34:45.485Z,8.40
2018-12-29T21:37:16.433Z,8.30
2018-12-29T21:39:44.761Z,8.30
2018-12-29T21:42:13.216Z,8.30
2018-12-29T21:44:41.728Z,8.30
2018-12-29T21:47:10.293Z,8.30
2018-12-29T21:49:38.605Z,8.20
2018-12-29T21:52:06.921Z,8.20
2018-12-29T21:54:35.300Z,8.20
2018-12-29T21:57:03.920Z,8.20
2018-12-29T21:59:32.743Z,8.30
2018-12-29T22:02:01.674Z,8.30
2018-12-29T22:04:31.203Z,8.30
2018-12-29T22:06:59.734Z,8.20
2018-12-29T22:09:28.049Z,8.30
2018-12-29T22:11:56.677Z,8.30
2018-12-29T22:14:25.098Z,8.30
2018-12-29T22:16:54.418Z,8.30
2018-12-29T22:19:22.789Z,8.30
2018-12-29T22:21:51.534Z,8.20
2018-12-29T22:24:19.869Z,8.30
2018-12-29T22:26:48.262Z,8.30
2018-12-29T22:29:17.065Z,8.40
2018-12-29T22:31:46.738Z,8.40
2018-12-29T22:34:15.169Z,8.40
2018-12-29T22:36:48.601Z,8.40
2018-12-29T22:39:17.121Z,8.40
2018-12-29T22:41:46.277Z,8.40
2018-12-29T22:44:16.562Z,8.50
2018-12-29T22:46:44.950Z,8.50
2018-12-29T22:49:13.406Z,8.50
2018-12-29T22:51:42.172Z,8.50
2018-12-29T22:54:11.406Z,8.40
2018-12-29T22:56:39.893Z,8.40
2018-12-29T22:59:08.374Z,8.30
2018-12-29T23:01:36.797Z,8.20
2018-12-29T23:04:05.375Z,8.20
2018-12-29T23:06:33.798Z,8.20
2018-12-29T23:09:06.287Z,8.30
2018-12-29T23:11:35.105Z,8.30
2018-12-29T23:14:03.625Z,8.40
2018-12-29T23:16:32.120Z,8.30
2018-12-29T23:19:01.286Z,8.30
2018-12-29T23:21:29.797Z,8.20
2018-12-29T23:24:00.028Z,8.10
2018-12-29T23:26:28.409Z,8.10
2018-12-29T23:28:56.823Z,8.00
2018-12-29T23:31:32.977Z,8.00
2018-12-29T23:34:01.349Z,7.90
2018-12-29T23:36:29.718Z,7.90
2018-12-29T23:38:58.256Z,7.90
2018-12-29T23:41:26.565Z,7.80
2018-12-29T23:43:55.014Z,7.70
2018-12-29T23:46:23.393Z,7.60
2018-12-29T23:48:51.897Z,7.60
2018-12-29T23:51:20.330Z,7.50
2018-12-29T23:53:48.652Z,7.50
2018-12-29T23:56:17.437Z,7.50
2018-12-29T23:58:45.773Z,7.40
